Time;durP1;ratioP1;P1;durP2;ratioP2;P2;SDS_P1;SDS_P2;PMS_P1;PMS_P2;Temp;Humidity;BMP_temperature;BMP_pressure;BME280_temperature;BME280_humidity;BME280_pressure;Samples;Min_cycle;Max_cycle;Signal;HPM_P1;HPM_P2
2022/07/08 00:00:12;;;;;;;6.00;1.60;;;15.10;99.90;;;;;;5066300;28;20063;-59
2022/07/08 00:02:38;;;;;;;8.95;2.17;;;15.10;99.90;;;;;;5069065;28;20106;-59
2022/07/08 00:05:04;;;;;;;11.40;2.13;;;15.10;99.90;;;;;;5069713;28;20060;-60
2022/07/08 00:07:29;;;;;;;7.93;2.05;;;15.10;99.90;;;;;;5076383;28;20441;-59
2022/07/08 00:09:55;;;;;;;12.68;1.95;;;15.10;99.90;;;;;;5069457;28;20048;-59
2022/07/08 00:12:21;;;;;;;8.25;2.03;;;15.10;99.90;;;;;;5069907;28;20072;-60
2022/07/08 00:14:46;;;;;;;8.13;2.40;;;15.10;99.90;;;;;;5068076;28;20055;-61
2022/07/08 00:17:12;;;;;;;10.35;2.38;;;15.10;99.90;;;;;;5069307;28;20044;-59
2022/07/08 00:19:38;;;;;;;9.18;2.25;;;15.10;99.90;;;;;;5065472;28;20440;-62
2022/07/08 00:22:04;;;;;;;8.27;2.20;;;15.00;99.90;;;;;;5070167;28;20083;-61
2022/07/08 00:24:29;;;;;;;11.48;1.80;;;15.00;99.90;;;;;;5070074;28;20044;-60
2022/07/08 00:26:55;;;;;;;10.65;2.58;;;15.10;99.90;;;;;;5067674;28;20512;-59
2022/07/08 00:29:21;;;;;;;9.45;2.10;;;15.10;99.90;;;;;;5069438;28;20120;-60
2022/07/08 00:31:46;;;;;;;9.07;2.15;;;15.10;99.90;;;;;;5069567;28;20059;-62
2022/07/08 00:34:12;;;;;;;9.80;2.10;;;15.10;99.90;;;;;;5068817;28;20048;-60
2022/07/08 00:36:38;;;;;;;9.63;2.05;;;15.10;99.90;;;;;;5063708;28;20048;-60
2022/07/08 00:39:04;;;;;;;7.45;1.98;;;15.00;99.90;;;;;;5063907;28;20404;-59
2022/07/08 00:41:30;;;;;;;12.88;1.83;;;15.00;99.90;;;;;;5066671;28;20048;-60
2022/07/08 00:43:56;;;;;;;8.95;1.75;;;15.00;99.90;;;;;;5068696;28;20037;-60
2022/07/08 00:46:22;;;;;;;8.80;2.15;;;15.00;99.90;;;;;;5063108;28;20072;-60
2022/07/08 00:48:48;;;;;;;7.57;2.42;;;15.00;99.90;;;;;;5066869;28;20079;-60
2022/07/08 00:51:16;;;;;;;9.50;2.15;;;15.00;99.90;;;;;;5045742;28;20190;-60
2022/07/08 00:53:45;;;;;;;8.10;1.90;;;15.00;99.90;;;;;;5068677;28;20044;-60
2022/07/08 00:56:11;;;;;;;8.05;2.03;;;14.90;99.90;;;;;;5072488;28;20048;-60
2022/07/08 00:58:39;;;;;;;8.98;2.20;;;15.00;99.90;;;;;;5064960;28;20052;-60
2022/07/08 01:01:05;;;;;;;10.30;2.05;;;14.90;99.90;;;;;;5068491;28;20137;-60
2022/07/08 01:03:31;;;;;;;9.98;1.92;;;14.90;99.90;;;;;;5067543;28;20068;-59
2022/07/08 01:05:56;;;;;;;12.48;1.95;;;14.90;99.90;;;;;;5066148;28;20048;-60
2022/07/08 01:08:23;;;;;;;9.00;2.38;;;14.90;99.90;;;;;;5068186;28;20063;-60
2022/07/08 01:10:49;;;;;;;8.13;2.13;;;14.80;99.90;;;;;;5065560;28;20494;-60
2022/07/08 01:13:16;;;;;;;8.50;2.28;;;14.80;99.90;;;;;;5067002;28;20041;-60
2022/07/08 01:15:43;;;;;;;9.20;2.33;;;14.80;99.90;;;;;;5067270;28;20076;-59
2022/07/08 01:18:09;;;;;;;7.63;2.00;;;14.80;99.90;;;;;;5067113;28;20132;-59
2022/07/08 01:20:34;;;;;;;9.00;2.33;;;14.70;99.90;;;;;;5064058;28;20131;-60
2022/07/08 01:23:00;;;;;;;8.25;1.98;;;14.80;99.90;;;;;;5060439;28;20485;-59
2022/07/08 01:25:27;;;;;;;8.07;1.83;;;14.70;99.90;;;;;;5072936;28;20497;-59
2022/07/08 01:27:54;;;;;;;12.70;2.50;;;14.80;99.90;;;;;;5071868;28;20052;-59
2022/07/08 01:30:19;;;;;;;10.18;2.28;;;14.80;99.90;;;;;;5071683;28;20041;-59
2022/07/08 01:32:46;;;;;;;7.03;1.70;;;14.70;99.90;;;;;;5061669;28;20487;-59
2022/07/08 01:35:12;;;;;;;9.38;1.70;;;14.80;99.90;;;;;;5067161;28;20068;-59
2022/07/08 01:37:37;;;;;;;8.75;1.90;;;14.80;99.90;;;;;;5073428;28;20580;-59
2022/07/08 01:40:04;;;;;;;12.50;2.60;;;14.70;99.90;;;;;;5072732;28;20094;-59
2022/07/08 01:42:29;;;;;;;11.00;2.80;;;14.70;99.90;;;;;;5082107;28;20086;-59
2022/07/08 01:44:55;;;;;;;10.32;2.22;;;14.70;99.90;;;;;;5072348;28;20071;-59
2022/07/08 01:47:21;;;;;;;8.55;2.25;;;14.70;99.90;;;;;;5072579;28;20405;-59
2022/07/08 01:49:46;;;;;;;9.45;2.15;;;14.70;99.90;;;;;;5068623;28;20103;-58
2022/07/08 01:52:13;;;;;;;12.88;2.35;;;14.60;99.90;;;;;;5068651;28;20052;-60
2022/07/08 01:54:38;;;;;;;10.23;2.38;;;14.60;99.90;;;;;;5068424;28;20052;-59
2022/07/08 01:57:13;;;;;;;13.27;2.22;;;14.60;99.90;;;;;;5063157;28;20049;-58
2022/07/08 01:59:42;;;;;;;9.68;2.08;;;14.60;99.90;;;;;;5073110;28;20044;-59
2022/07/08 02:02:09;;;;;;;9.18;2.20;;;14.50;99.90;;;;;;5072205;28;20044;-60
2022/07/08 02:04:35;;;;;;;10.10;2.60;;;14.50;99.90;;;;;;5072089;28;20068;-59
2022/07/08 02:07:01;;;;;;;12.20;2.10;;;14.40;99.90;;;;;;5062821;28;20076;-60
2022/07/08 02:09:27;;;;;;;10.50;2.30;;;14.40;99.90;;;;;;5071249;28;20037;-59
2022/07/08 02:14:36;;;;;;;8.57;2.10;;;14.30;99.90;;;;;;5070072;28;20076;-59
2022/07/08 02:17:03;;;;;;;8.10;1.95;;;14.30;99.90;;;;;;5065155;28;20124;-60
2022/07/08 02:19:29;;;;;;;8.77;2.03;;;14.30;99.90;;;;;;5072225;28;20386;-59
2022/07/08 02:21:55;;;;;;;9.23;2.28;;;14.30;99.90;;;;;;5068190;28;20059;-59
2022/07/08 02:24:21;;;;;;;11.57;2.25;;;14.30;99.90;;;;;;5063681;28;20406;-59
2022/07/08 02:26:46;;;;;;;9.27;2.42;;;14.20;99.90;;;;;;5068584;28;20067;-59
2022/07/08 02:29:12;;;;;;;8.88;2.28;;;14.10;99.90;;;;;;5072177;28;20036;-60
2022/07/08 02:31:38;;;;;;;6.88;2.00;;;14.10;99.90;;;;;;5068527;28;20055;-59
2022/07/08 02:34:03;;;;;;;7.43;2.05;;;14.10;99.90;;;;;;5052755;28;20090;-62
2022/07/08 02:36:29;;;;;;;12.65;2.53;;;14.00;99.90;;;;;;5066823;28;20452;-59
2022/07/08 02:38:55;;;;;;;6.75;2.20;;;14.00;99.90;;;;;;5072330;28;20037;-59
2022/07/08 02:41:21;;;;;;;10.75;2.03;;;13.90;99.90;;;;;;5071696;28;20040;-59
2022/07/08 02:43:46;;;;;;;8.60;2.00;;;14.00;99.90;;;;;;5064774;28;20608;-59
2022/07/08 02:46:12;;;;;;;10.57;2.00;;;13.90;99.90;;;;;;5071263;28;20048;-60
2022/07/08 02:48:38;;;;;;;9.38;2.13;;;13.90;99.90;;;;;;5070170;28;20036;-59
2022/07/08 02:51:04;;;;;;;11.75;2.72;;;13.90;99.90;;;;;;5068630;28;20068;-59
2022/07/08 02:53:29;;;;;;;10.25;2.65;;;13.90;99.90;;;;;;5071147;28;20397;-59
2022/07/08 02:55:55;;;;;;;9.93;2.25;;;13.80;99.90;;;;;;5071914;28;20048;-59
2022/07/08 02:58:21;;;;;;;5.10;2.10;;;13.80;99.90;;;;;;5063523;28;20517;-60
2022/07/08 03:00:47;;;;;;;6.55;2.00;;;13.80;99.90;;;;;;5068823;28;20121;-60
2022/07/08 03:03:12;;;;;;;9.52;2.17;;;13.80;99.90;;;;;;5068422;28;20053;-60
2022/07/08 03:05:38;;;;;;;9.38;2.15;;;13.80;99.90;;;;;;5068219;28;20394;-59
2022/07/08 03:08:04;;;;;;;6.60;2.03;;;13.80;99.90;;;;;;5053892;28;20526;-59
2022/07/08 03:10:30;;;;;;;8.70;2.45;;;13.70;99.90;;;;;;5068443;28;20116;-61
2022/07/08 03:12:55;;;;;;;10.02;2.30;;;13.70;99.90;;;;;;5071029;28;20040;-59
2022/07/08 03:15:21;;;;;;;7.82;2.47;;;13.70;99.90;;;;;;5068230;28;20122;-60
2022/07/08 03:17:47;;;;;;;8.57;2.40;;;13.60;99.90;;;;;;5071020;28;20044;-59
2022/07/08 03:20:13;;;;;;;8.80;2.42;;;13.60;99.90;;;;;;5070171;28;20456;-59
2022/07/08 03:22:39;;;;;;;7.88;2.65;;;13.60;99.90;;;;;;5070693;28;20048;-59
2022/07/08 03:25:05;;;;;;;8.60;2.58;;;13.60;99.90;;;;;;5066420;28;20040;-59
2022/07/08 03:27:31;;;;;;;8.90;2.25;;;13.60;99.90;;;;;;5070730;28;20049;-59
2022/07/08 03:29:57;;;;;;;9.73;1.95;;;13.60;99.90;;;;;;5068456;28;20067;-59
2022/07/08 03:32:23;;;;;;;11.38;2.72;;;13.60;99.90;;;;;;5069378;28;20101;-59
2022/07/08 03:34:49;;;;;;;9.55;2.83;;;13.50;99.90;;;;;;5067766;28;20040;-60
2022/07/08 03:37:15;;;;;;;10.10;2.45;;;13.50;99.90;;;;;;5059066;28;20075;-61
2022/07/08 03:39:41;;;;;;;10.20;2.40;;;13.50;99.90;;;;;;5056438;28;20040;-60
2022/07/08 03:42:07;;;;;;;9.52;2.53;;;13.50;99.90;;;;;;5060578;28;20044;-60
2022/07/08 03:44:33;;;;;;;6.95;2.50;;;13.50;99.90;;;;;;5052288;28;20394;-60
2022/07/08 03:46:59;;;;;;;9.70;2.58;;;13.60;99.90;;;;;;5065004;28;20058;-60
2022/07/08 03:49:24;;;;;;;7.32;2.33;;;13.60;99.90;;;;;;5064369;28;20543;-59
2022/07/08 03:51:50;;;;;;;13.98;3.55;;;13.60;99.90;;;;;;5058005;28;20461;-59
2022/07/08 03:54:16;;;;;;;9.43;2.08;;;13.60;99.90;;;;;;5064423;28;20411;-60
2022/07/08 03:56:41;;;;;;;9.20;2.72;;;13.60;99.90;;;;;;5040534;28;20045;-60
2022/07/08 03:59:07;;;;;;;8.77;2.60;;;13.70;99.90;;;;;;5063414;28;20044;-59
2022/07/08 04:01:33;;;;;;;8.55;2.47;;;13.70;99.90;;;;;;5051921;28;20459;-59
2022/07/08 04:03:59;;;;;;;8.77;2.20;;;13.70;99.90;;;;;;5070324;28;20045;-60
2022/07/08 04:06:24;;;;;;;11.15;2.80;;;13.70;99.90;;;;;;5066323;28;20094;-59
2022/07/08 04:08:50;;;;;;;12.20;2.88;;;13.70;99.90;;;;;;5067220;28;20389;-59
2022/07/08 04:11:16;;;;;;;10.60;2.75;;;13.70;99.90;;;;;;5070325;28;20044;-62
2022/07/08 04:13:42;;;;;;;8.73;2.83;;;13.70;99.90;;;;;;5068794;28;20379;-59
2022/07/08 04:16:12;;;;;;;10.00;2.90;;;13.70;99.90;;;;;;5069400;28;20044;-60
2022/07/08 04:18:39;;;;;;;10.13;2.97;;;13.80;99.90;;;;;;5067034;28;20096;-59
2022/07/08 04:21:06;;;;;;;11.10;2.80;;;13.80;99.90;;;;;;5071454;28;20056;-60
2022/07/08 04:23:32;;;;;;;9.50;2.83;;;13.80;99.90;;;;;;5069733;28;20469;-61
2022/07/08 04:25:58;;;;;;;11.80;2.67;;;13.70;99.90;;;;;;5070343;28;20036;-59
2022/07/08 04:28:23;;;;;;;7.72;2.50;;;13.80;99.90;;;;;;5068967;28;20037;-60
2022/07/08 04:30:49;;;;;;;10.43;2.75;;;13.80;99.90;;;;;;5070482;28;20041;-60
2022/07/08 04:33:15;;;;;;;10.93;3.35;;;13.90;99.90;;;;;;5069443;28;20117;-60
2022/07/08 04:35:40;;;;;;;7.32;2.42;;;14.00;99.90;;;;;;5068006;28;20132;-59
2022/07/08 04:38:06;;;;;;;8.10;2.47;;;14.10;99.90;;;;;;5066845;28;20076;-59
2022/07/08 04:40:32;;;;;;;11.05;2.78;;;14.30;99.90;;;;;;5066964;28;20126;-60
2022/07/08 04:42:58;;;;;;;14.38;3.38;;;14.40;99.90;;;;;;5066256;28;20055;-60
2022/07/08 04:45:24;;;;;;;10.32;2.63;;;14.40;99.90;;;;;;5067612;28;20044;-60
2022/07/08 04:47:50;;;;;;;12.00;2.40;;;14.50;99.90;;;;;;5080653;28;20120;-60
2022/07/08 04:50:17;;;;;;;11.02;2.70;;;14.60;99.90;;;;;;5068214;28;20143;-60
2022/07/08 04:52:42;;;;;;;13.85;2.85;;;14.60;99.90;;;;;;5069134;28;20047;-59
2022/07/08 04:55:27;;;;;;;9.63;2.60;;;14.60;99.90;;;;;;5066924;28;20128;-59
2022/07/08 04:58:02;;;;;;;;;;;14.60;99.90;;;;;;5063811;28;20056;-59
2022/07/08 05:00:29;;;;;;;10.63;2.20;;;14.70;99.90;;;;;;5069694;28;20015;-59
2022/07/08 05:02:55;;;;;;;14.23;2.30;;;14.70;99.90;;;;;;5071959;28;20470;-60
2022/07/08 05:05:21;;;;;;;13.75;3.08;;;14.80;99.90;;;;;;5072233;28;20046;-60
2022/07/08 05:07:48;;;;;;;10.30;2.13;;;15.10;99.90;;;;;;5053411;28;20064;-59
2022/07/08 05:10:18;;;;;;;9.55;2.20;;;15.60;99.90;;;;;;5068263;28;20085;-58
2022/07/08 05:12:45;;;;;;;9.77;2.03;;;16.30;99.90;;;;;;5073684;28;20056;-59
2022/07/08 05:15:12;;;;;;;8.20;2.45;;;17.20;99.90;;;;;;5072908;28;20052;-60
2022/07/08 05:17:39;;;;;;;8.80;2.17;;;18.00;99.90;;;;;;5073032;28;20033;-61
2022/07/08 05:20:09;;;;;;;7.80;2.20;;;18.70;99.90;;;;;;5068782;28;20051;-61
2022/07/08 05:22:36;;;;;;;9.18;2.10;;;19.10;99.90;;;;;;5071581;28;20047;-60
2022/07/08 05:25:06;;;;;;;11.95;2.50;;;19.40;99.90;;;;;;5070221;28;20116;-60
2022/07/08 05:27:33;;;;;;;10.35;2.10;;;19.40;99.90;;;;;;5071397;28;20048;-60
2022/07/08 05:29:58;;;;;;;11.10;2.42;;;19.00;99.90;;;;;;5061707;28;20131;-60
2022/07/08 05:32:24;;;;;;;9.60;2.40;;;18.70;99.90;;;;;;5071861;28;20123;-60
2022/07/08 05:34:50;;;;;;;10.77;2.67;;;18.80;99.90;;;;;;5065465;28;20494;-61
2022/07/08 05:37:16;;;;;;;11.85;2.47;;;19.00;99.90;;;;;;5067469;28;20045;-60
2022/07/08 05:39:42;;;;;;;9.50;2.35;;;19.00;99.90;;;;;;5067117;28;20036;-60
2022/07/08 05:42:09;;;;;;;9.55;2.50;;;18.70;99.90;;;;;;5063545;28;20131;-60
2022/07/08 05:44:37;;;;;;;14.27;3.03;;;18.30;99.90;;;;;;5059989;28;20080;-60
2022/07/08 05:47:04;;;;;;;8.90;2.10;;;18.10;99.90;;;;;;5063949;28;20343;-60
2022/07/08 05:49:30;;;;;;;11.77;2.20;;;17.90;99.90;;;;;;5063815;28;20033;-57
2022/07/08 05:51:56;;;;;;;7.88;2.10;;;17.60;99.90;;;;;;5063903;28;20044;-59
2022/07/08 05:54:22;;;;;;;11.02;2.50;;;17.50;99.90;;;;;;5061003;28;20045;-59
2022/07/08 05:56:47;;;;;;;10.55;2.70;;;17.40;99.90;;;;;;5064296;28;20048;-59
2022/07/08 05:59:13;;;;;;;8.90;2.13;;;17.50;99.90;;;;;;5063268;28;20048;-59
2022/07/08 06:01:39;;;;;;;10.68;2.50;;;17.60;99.90;;;;;;5057743;28;20071;-59
2022/07/08 06:04:05;;;;;;;9.60;2.28;;;17.70;99.90;;;;;;5057300;28;20383;-59
2022/07/08 06:06:30;;;;;;;7.38;2.05;;;17.90;99.90;;;;;;5064683;28;20439;-60
2022/07/08 06:08:56;;;;;;;6.30;1.98;;;17.90;99.90;;;;;;5064215;28;20044;-59
2022/07/08 06:11:22;;;;;;;14.10;2.72;;;17.90;99.90;;;;;;5073468;28;20517;-60
2022/07/08 06:13:47;;;;;;;8.70;2.22;;;17.90;99.90;;;;;;5059995;28;20045;-61
2022/07/08 06:16:13;;;;;;;9.32;2.40;;;17.90;99.90;;;;;;5065122;28;20084;-60
2022/07/08 06:18:39;;;;;;;11.20;2.65;;;17.90;99.90;;;;;;5063491;28;20049;-60
2022/07/08 06:21:04;;;;;;;9.95;2.38;;;17.90;99.90;;;;;;5059035;28;20059;-60
2022/07/08 06:23:31;;;;;;;7.57;2.03;;;17.90;99.90;;;;;;5058797;28;20043;-61
2022/07/08 06:25:57;;;;;;;10.02;2.08;;;17.80;99.90;;;;;;5063111;28;20715;-60
2022/07/08 06:28:24;;;;;;;8.43;2.30;;;17.80;99.90;;;;;;5063984;28;20083;-60
2022/07/08 06:30:50;;;;;;;16.40;2.65;;;17.90;99.90;;;;;;5049719;28;20059;-61
2022/07/08 06:33:16;;;;;;;10.85;2.40;;;17.90;99.90;;;;;;5064536;28;20059;-59
2022/07/08 06:35:41;;;;;;;11.73;2.30;;;17.90;99.90;;;;;;5055447;28;20400;-59
2022/07/08 06:38:07;;;;;;;11.90;2.53;;;18.00;99.90;;;;;;5046539;28;20041;-59
2022/07/08 06:40:33;;;;;;;10.05;2.63;;;18.10;99.90;;;;;;5060920;28;20091;-59
2022/07/08 06:42:58;;;;;;;11.85;2.75;;;18.30;99.90;;;;;;5044502;28;20049;-59
2022/07/08 06:45:24;;;;;;;7.78;2.13;;;18.40;99.90;;;;;;5058403;28;20387;-59
2022/07/08 06:47:50;;;;;;;9.82;2.20;;;18.50;99.90;;;;;;5062444;28;20116;-60
2022/07/08 06:50:15;;;;;;;11.20;2.55;;;18.50;99.90;;;;;;5059736;28;20431;-60
2022/07/08 06:52:41;;;;;;;11.35;2.38;;;18.60;99.90;;;;;;5044829;28;20045;-60
2022/07/08 06:55:07;;;;;;;9.15;2.30;;;18.60;99.90;;;;;;5059791;28;20044;-60
2022/07/08 06:57:33;;;;;;;9.00;2.05;;;18.80;99.90;;;;;;5062364;28;20132;-60
2022/07/08 06:59:59;;;;;;;10.77;2.30;;;19.00;99.90;;;;;;5065218;28;20049;-61
2022/07/08 07:02:24;;;;;;;5.13;1.92;;;19.20;99.90;;;;;;5069547;28;20045;-60
2022/07/08 07:04:50;;;;;;;10.25;2.30;;;19.30;99.90;;;;;;5067728;28;20051;-60
2022/07/08 07:07:16;;;;;;;6.47;1.83;;;19.40;99.90;;;;;;5065277;28;20055;-58
2022/07/08 07:09:41;;;;;;;8.80;2.25;;;19.50;99.90;;;;;;5060541;28;20048;-59
2022/07/08 07:12:07;;;;;;;11.73;2.15;;;19.50;99.90;;;;;;5067460;28;20051;-58
2022/07/08 07:14:34;;;;;;;7.10;1.90;;;19.60;99.90;;;;;;5058560;28;20042;-60
2022/07/08 07:17:00;;;;;;;10.32;2.75;;;19.50;99.90;;;;;;5057813;28;20083;-60
2022/07/08 07:19:27;;;;;;;5.97;1.95;;;19.40;99.90;;;;;;5059334;28;20141;-58
2022/07/08 07:21:53;;;;;;;6.88;2.15;;;19.50;99.90;;;;;;5065373;28;20045;-60
2022/07/08 07:24:19;;;;;;;8.45;2.08;;;19.60;99.90;;;;;;5071410;28;20389;-59
2022/07/08 07:26:45;;;;;;;6.45;2.03;;;19.50;99.90;;;;;;5069498;28;20037;-62
2022/07/08 07:29:10;;;;;;;9.77;2.85;;;19.30;99.90;;;;;;5071267;28;20132;-60
2022/07/08 07:31:36;;;;;;;7.03;2.25;;;19.20;99.90;;;;;;5065500;28;20045;-60
2022/07/08 07:34:03;;;;;;;5.68;1.92;;;19.00;99.90;;;;;;5060587;28;20059;-60
2022/07/08 07:36:30;;;;;;;11.32;2.15;;;19.00;99.90;;;;;;5063877;28;20041;-61
2022/07/08 07:38:56;;;;;;;8.32;2.00;;;19.00;99.90;;;;;;5066767;28;20115;-61
2022/07/08 07:41:22;;;;;;;8.95;2.00;;;19.00;99.90;;;;;;5057136;28;20115;-61
2022/07/08 07:43:48;;;;;;;8.10;2.10;;;18.90;99.90;;;;;;5066698;28;20040;-61
2022/07/08 07:46:14;;;;;;;8.40;2.10;;;18.90;99.90;;;;;;5057664;28;20528;-61
2022/07/08 07:48:40;;;;;;;7.45;2.15;;;18.90;99.90;;;;;;5062698;28;20094;-60
2022/07/08 07:51:05;;;;;;;7.95;2.65;;;18.90;99.90;;;;;;5069688;28;20037;-61
2022/07/08 07:53:31;;;;;;;7.15;1.92;;;18.90;99.90;;;;;;5066494;28;20102;-60
2022/07/08 07:55:57;;;;;;;7.60;2.15;;;18.80;99.90;;;;;;5069974;28;20531;-60
2022/07/08 07:58:24;;;;;;;8.50;2.42;;;18.80;99.90;;;;;;5057957;28;20139;-60
2022/07/08 08:00:52;;;;;;;7.47;2.05;;;18.90;99.90;;;;;;5063856;28;20048;-60
2022/07/08 08:03:18;;;;;;;8.68;2.03;;;18.90;99.90;;;;;;5067742;28;20083;-60
2022/07/08 08:05:44;;;;;;;8.45;2.05;;;18.90;99.90;;;;;;5067346;28;20091;-60
2022/07/08 08:08:11;;;;;;;7.63;2.20;;;18.90;99.90;;;;;;5058118;28;20044;-61
2022/07/08 08:10:37;;;;;;;6.45;2.40;;;19.00;99.90;;;;;;5067443;28;20067;-63
2022/07/08 08:13:03;;;;;;;5.28;1.92;;;19.00;99.90;;;;;;5059424;28;20080;-62
2022/07/08 08:15:29;;;;;;;7.95;1.95;;;19.00;99.90;;;;;;5051876;28;20119;-63
2022/07/08 08:17:57;;;;;;;7.60;2.00;;;19.00;99.90;;;;;;5062125;28;20080;-62
2022/07/08 08:20:29;;;;;;;11.27;2.60;;;19.00;99.90;;;;;;5061953;28;20419;-62
2022/07/08 08:22:55;;;;;;;8.02;2.40;;;19.10;99.90;;;;;;5059162;28;20051;-63
2022/07/08 08:25:21;;;;;;;7.45;2.50;;;19.00;99.90;;;;;;5062045;28;20577;-62
2022/07/08 08:27:47;;;;;;;7.22;2.78;;;19.10;99.90;;;;;;5061438;28;20362;-63
2022/07/08 08:30:15;;;;;;;8.02;2.20;;;19.10;99.90;;;;;;5061423;28;20056;-63
2022/07/08 08:32:41;;;;;;;11.43;2.40;;;19.10;99.90;;;;;;5066094;28;20040;-62
2022/07/08 08:35:09;;;;;;;8.05;2.28;;;19.10;99.90;;;;;;5053812;28;20053;-62
2022/07/08 08:37:35;;;;;;;7.75;2.40;;;19.10;99.90;;;;;;5055632;28;20048;-62
2022/07/08 08:40:03;;;;;;;8.45;2.25;;;19.10;99.90;;;;;;5062557;28;20049;-62
2022/07/08 08:42:31;;;;;;;9.63;1.90;;;19.10;99.90;;;;;;5056497;28;20144;-62
2022/07/08 08:44:58;;;;;;;6.45;2.08;;;19.10;99.90;;;;;;5062245;28;20110;-65
2022/07/08 08:47:28;;;;;;;7.15;2.50;;;19.00;99.90;;;;;;5074934;28;20045;-62
2022/07/08 08:49:56;;;;;;;7.63;1.90;;;19.00;99.90;;;;;;5064168;28;20036;-62
2022/07/08 08:52:23;;;;;;;8.02;2.33;;;19.10;99.90;;;;;;5065641;28;20044;-62
2022/07/08 08:54:51;;;;;;;5.22;2.08;;;19.10;99.90;;;;;;5061629;28;20040;-63
2022/07/08 08:57:18;;;;;;;5.88;2.22;;;19.20;99.90;;;;;;5051335;28;20502;-63
2022/07/08 08:59:46;;;;;;;12.45;2.78;;;19.20;99.90;;;;;;5062217;28;20037;-62
2022/07/08 09:02:12;;;;;;;7.47;2.20;;;19.30;99.90;;;;;;5067691;28;20393;-62
2022/07/08 09:04:38;;;;;;;10.65;2.30;;;19.40;99.90;;;;;;5068730;28;20047;-63
2022/07/08 09:07:05;;;;;;;9.45;2.20;;;19.50;99.90;;;;;;5069279;28;20520;-62
2022/07/08 09:09:31;;;;;;;8.73;2.40;;;19.50;99.90;;;;;;5069778;28;20037;-62
2022/07/08 09:11:56;;;;;;;13.15;2.70;;;19.70;99.90;;;;;;5068246;28;20485;-64
2022/07/08 09:14:23;;;;;;;11.07;2.42;;;19.80;99.90;;;;;;5064457;28;20040;-63
2022/07/08 09:17:13;;;;;;;6.40;1.80;;;20.00;99.90;;;;;;5053928;28;20061;-70
2022/07/08 09:19:49;;;;;;;9.15;2.53;;;20.10;99.90;;;;;;5055758;28;20045;-63
2022/07/08 09:22:15;;;;;;;8.48;2.10;;;20.10;99.90;;;;;;5043247;28;20048;-60
2022/07/08 09:24:40;;;;;;;8.27;2.28;;;20.10;99.90;;;;;;5059776;28;20413;-65
2022/07/08 09:27:11;;;;;;;8.32;2.42;;;20.20;99.90;;;;;;5037034;28;20502;-65
2022/07/08 09:29:59;;;;;;;8.60;2.28;;;20.30;99.90;;;;;;5060270;28;20051;-61
2022/07/08 09:32:25;;;;;;;11.00;2.45;;;20.30;99.90;;;;;;5067172;28;20066;-65
2022/07/08 09:34:51;;;;;;;8.88;2.22;;;20.40;99.90;;;;;;5054332;28;20051;-62
2022/07/08 09:37:18;;;;;;;5.55;1.92;;;20.40;99.90;;;;;;5057477;28;20056;-62
2022/07/08 09:39:45;;;;;;;11.88;2.25;;;20.40;99.90;;;;;;5051776;28;20055;-62
2022/07/08 09:42:19;;;;;;;7.75;2.10;;;20.40;99.90;;;;;;5060522;28;20037;-63
2022/07/08 09:44:51;;;;;;;5.28;2.10;;;20.40;99.90;;;;;;5056979;28;20126;-63
2022/07/08 09:47:17;;;;;;;5.97;1.90;;;20.50;99.90;;;;;;5061804;28;20049;-62
2022/07/08 09:49:45;;;;;;;7.47;1.80;;;20.60;99.90;;;;;;5052595;28;20040;-62
2022/07/08 09:52:19;;;;;;;8.77;2.63;;;20.70;99.90;;;;;;5061330;28;20128;-61
2022/07/08 09:54:44;;;;;;;4.63;1.70;;;20.70;99.90;;;;;;5058465;28;20135;-62
2022/07/08 09:57:11;;;;;;;7.95;2.30;;;20.80;99.90;;;;;;5064986;28;20116;-64
2022/07/08 09:59:38;;;;;;;8.50;1.90;;;21.00;99.90;;;;;;5061174;28;20412;-64
2022/07/08 10:02:05;;;;;;;7.50;2.10;;;21.10;99.90;;;;;;5061222;28;20067;-62
2022/07/08 10:04:31;;;;;;;9.82;1.95;;;21.20;99.90;;;;;;5062920;28;20045;-63
2022/07/08 10:06:58;;;;;;;9.30;2.40;;;21.30;99.90;;;;;;5062775;28;20123;-62
2022/07/08 10:09:26;;;;;;;9.20;2.30;;;21.30;99.90;;;;;;5064192;28;20094;-64
2022/07/08 10:11:53;;;;;;;5.72;1.90;;;21.30;99.90;;;;;;5063687;28;20041;-63
2022/07/08 10:14:19;;;;;;;7.78;2.08;;;21.40;99.90;;;;;;5063817;28;20044;-63
2022/07/08 10:16:49;;;;;;;8.23;2.40;;;21.50;99.90;;;;;;5064818;28;20053;-64
2022/07/08 10:19:31;;;;;;;8.95;2.30;;;21.60;99.90;;;;;;5070535;28;20043;-63
2022/07/08 10:21:58;;;;;;;7.45;1.73;;;21.70;99.90;;;;;;5071450;28;20086;-63
2022/07/08 10:24:27;;;;;;;6.80;1.83;;;21.80;99.90;;;;;;5069861;28;20856;-62
2022/07/08 10:27:01;;;;;;;4.50;1.70;;;21.90;99.90;;;;;;5054176;28;20049;-63
2022/07/08 10:29:31;;;;;;;6.00;2.33;;;22.00;99.90;;;;;;5071663;28;20055;-65
2022/07/08 10:31:58;;;;;;;9.18;2.33;;;22.00;99.90;;;;;;5072366;28;20197;-62
2022/07/08 10:34:32;;;;;;;8.77;2.38;;;22.00;99.90;;;;;;5068580;28;20119;-63
2022/07/08 10:37:00;;;;;;;7.55;2.40;;;22.00;99.90;;;;;;5071946;28;20044;-63
2022/07/08 10:39:30;;;;;;;8.38;2.40;;;22.10;99.90;;;;;;5071290;28;20041;-64
2022/07/08 10:41:59;;;;;;;6.25;2.10;;;22.40;99.90;;;;;;5072263;28;20059;-61
2022/07/08 10:44:57;;;;;;;10.38;2.58;;;22.50;99.90;;;;;;5052942;28;20057;-64
2022/07/08 10:47:32;;;;;;;7.25;2.03;;;22.80;99.90;;;;;;5046520;28;20056;-62
2022/07/08 10:50:08;;;;;;;7.00;2.10;;;22.70;99.90;;;;;;5071682;28;20124;-62
2022/07/08 10:52:39;;;;;;;5.93;2.22;;;22.80;99.90;;;;;;5071150;28;20057;-63
2022/07/08 10:55:09;;;;;;;8.20;2.28;;;22.70;99.90;;;;;;5050945;28;20136;-62
2022/07/08 10:57:35;;;;;;;7.78;2.17;;;22.60;99.90;;;;;;5070362;28;20041;-62
2022/07/08 11:00:06;;;;;;;5.60;1.88;;;22.40;99.90;;;;;;5071207;28;20056;-62
2022/07/08 11:02:32;;;;;;;5.90;2.30;;;22.40;99.90;;;;;;5071252;28;20097;-62
2022/07/08 11:04:58;;;;;;;8.43;2.17;;;22.30;99.90;;;;;;5069465;28;20048;-63
2022/07/08 11:07:26;;;;;;;7.28;1.70;;;22.40;99.90;;;;;;5070785;28;20067;-62
2022/07/08 11:10:13;;;;;;;4.20;1.70;;;22.50;99.90;;;;;;5071245;28;20051;-62
2022/07/08 11:12:40;;;;;;;5.95;1.88;;;22.70;99.90;;;;;;5065771;28;20049;-63
2022/07/08 11:15:09;;;;;;;7.38;2.15;;;22.90;99.90;;;;;;5069241;28;20102;-62
2022/07/08 11:17:37;;;;;;;7.20;2.13;;;23.00;99.90;;;;;;5071133;28;20119;-62
2022/07/08 11:20:08;;;;;;;6.00;2.08;;;23.10;99.90;;;;;;5071042;28;20478;-63
2022/07/08 11:22:38;;;;;;;8.15;2.53;;;23.20;99.90;;;;;;5062337;28;20382;-61
2022/07/08 11:25:06;;;;;;;7.55;2.42;;;23.20;99.90;;;;;;5070767;28;20078;-62
2022/07/08 11:27:35;;;;;;;8.82;2.20;;;23.30;99.90;;;;;;5070063;28;20094;-64
2022/07/08 11:30:07;;;;;;;8.13;2.28;;;23.30;99.90;;;;;;5070662;28;20044;-63
2022/07/08 11:32:33;;;;;;;7.88;2.40;;;23.20;99.90;;;;;;5070728;28;20060;-63
2022/07/08 11:34:58;;;;;;;8.27;2.50;;;23.20;99.90;;;;;;5069956;28;20048;-64
2022/07/08 11:37:25;;;;;;;5.28;2.08;;;23.10;99.90;;;;;;5064699;28;20055;-61
2022/07/08 11:39:51;;;;;;;7.60;2.22;;;23.20;99.90;;;;;;5070229;28;20040;-61
2022/07/08 11:42:17;;;;;;;5.55;1.90;;;23.30;99.90;;;;;;5070525;28;20067;-64
2022/07/08 11:44:44;;;;;;;8.27;2.45;;;23.40;99.90;;;;;;5070741;28;20076;-62
2022/07/08 11:47:13;;;;;;;7.82;2.25;;;23.50;99.90;;;;;;5051986;28;20052;-63
2022/07/08 11:49:43;;;;;;;10.60;2.67;;;23.50;99.90;;;;;;5069686;28;20133;-64
2022/07/08 11:52:10;;;;;;;8.85;2.00;;;23.50;99.90;;;;;;5051084;28;20083;-65
2022/07/08 11:54:35;;;;;;;10.95;2.60;;;23.40;99.90;;;;;;5070112;28;20051;-64
2022/07/08 11:57:02;;;;;;;5.57;2.38;;;23.20;99.90;;;;;;5069809;28;20052;-63
2022/07/08 11:59:30;;;;;;;6.38;2.28;;;23.10;99.90;;;;;;5068431;28;20182;-63
2022/07/08 12:01:58;;;;;;;6.10;2.45;;;23.30;99.90;;;;;;5070138;28;20650;-65
2022/07/08 12:04:24;;;;;;;7.80;2.28;;;23.50;99.90;;;;;;5070056;28;20051;-63
2022/07/08 12:06:55;;;;;;;8.25;2.40;;;23.60;99.90;;;;;;5070386;28;20512;-63
2022/07/08 12:09:23;;;;;;;10.93;2.47;;;23.70;99.90;;;;;;5064481;28;20032;-63
2022/07/08 12:11:52;;;;;;;7.07;2.20;;;23.70;99.90;;;;;;5069970;28;20072;-63
2022/07/08 12:14:18;;;;;;;8.98;2.63;;;23.70;99.90;;;;;;5054421;28;20145;-63
2022/07/08 12:16:45;;;;;;;5.85;2.08;;;23.80;99.90;;;;;;5070326;28;20048;-63
2022/07/08 12:19:30;;;;;;;6.72;2.38;;;;;;;;;;5068549;28;20437;-63
2022/07/08 12:21:58;;;;;;;7.50;2.85;;;23.90;99.90;;;;;;5068773;28;20044;-63
2022/07/08 12:24:31;;;;;;;9.05;2.70;;;24.20;99.90;;;;;;5067769;28;20084;-63
2022/07/08 12:27:02;;;;;;;10.15;2.55;;;24.20;99.90;;;;;;5070311;28;20055;-63
2022/07/08 12:29:37;;;;;;;5.45;2.35;;;24.20;99.90;;;;;;5068475;28;20040;-63
2022/07/08 12:32:11;;;;;;;6.95;2.72;;;24.10;99.90;;;;;;5069869;28;20075;-63
2022/07/08 12:34:37;;;;;;;9.05;3.00;;;24.00;99.90;;;;;;5069741;28;20052;-63
2022/07/08 12:37:21;;;;;;;7.43;2.83;;;24.00;99.90;;;;;;5066290;28;20147;-62
2022/07/08 12:39:47;;;;;;;;;;;24.10;99.90;;;;;;5070174;28;20037;-63
2022/07/08 12:42:13;;;;;;;9.32;2.88;;;24.20;99.90;;;;;;5069778;28;20272;-63
2022/07/08 12:44:40;;;;;;;10.63;2.92;;;24.40;99.90;;;;;;5069644;28;20501;-63
2022/07/08 12:47:13;;;;;;;9.23;2.50;;;24.40;99.90;;;;;;5067884;28;20516;-63